Adaton, Mississippi
Current Conditions -  °F | °C
As of 8:55 PM on Wednesday 26 Nov 2014 (Local Time) from KSTF Reporting Station
Clear Clear  
Wind Chill:   Ceiling: Unl
Heat Index:   Visibility: NA
Dew Point:   Wind: 3mph
Humidity: 62%   Direction: 330°NNW
Pressure: 30.16"   Gusts: NA
Location:  33.4256°N, 88.8438°W
Report Text: KSTF 270255Z AUTO 33003KT CLR 08/01 A3016 RMK AO2 PWINO
Loading
Personal Weather Stations






























Interactive Weather Map New forecast layout! Learn more

10-Day Weather Forecast

Advertisements
Track Severe Weather on mobile